sensor_id;sensor_type;location;lat;lon;timestamp;pressure;altitude;pressure_sealevel;temperature;humidity
47274;BME280;33007;49.082;19.306;2022-07-18T00:00:14;97126.38;;;11.46;67.49
47274;BME280;33007;49.082;19.306;2022-07-18T00:02:39;97101.97;;;11.34;67.35
47274;BME280;33007;49.082;19.306;2022-07-18T00:05:05;97138.72;;;11.38;68.48
47274;BME280;33007;49.082;19.306;2022-07-18T00:07:31;97116.22;;;11.16;68.20
47274;BME280;33007;49.082;19.306;2022-07-18T00:09:57;97110.56;;;11.32;67.88
47274;BME280;33007;49.082;19.306;2022-07-18T00:12:22;97135.66;;;11.58;67.00
47274;BME280;33007;49.082;19.306;2022-07-18T00:14:48;97102.91;;;11.40;66.57
47274;BME280;33007;49.082;19.306;2022-07-18T00:17:14;97107.22;;;11.28;67.02
47274;BME280;33007;49.082;19.306;2022-07-18T00:19:40;97158.38;;;11.20;67.89
47274;BME280;33007;49.082;19.306;2022-07-18T00:22:06;97111.53;;;10.60;69.69
47274;BME280;33007;49.082;19.306;2022-07-18T00:24:31;97110.22;;;10.64;70.25
47274;BME280;33007;49.082;19.306;2022-07-18T00:26:58;97125.09;;;10.72;69.38
47274;BME280;33007;49.082;19.306;2022-07-18T00:29:25;97108.31;;;10.52;69.37
47274;BME280;33007;49.082;19.306;2022-07-18T00:31:50;97117.75;;;10.47;69.71
47274;BME280;33007;49.082;19.306;2022-07-18T00:34:16;97145.47;;;10.55;70.56
47274;BME280;33007;49.082;19.306;2022-07-18T00:36:42;97124.09;;;10.32;71.30
47274;BME280;33007;49.082;19.306;2022-07-18T00:39:08;97112.78;;;10.20;71.78
47274;BME280;33007;49.082;19.306;2022-07-18T00:41:33;97120.72;;;10.15;71.78
47274;BME280;33007;49.082;19.306;2022-07-18T00:43:58;97119.31;;;10.10;72.34
47274;BME280;33007;49.082;19.306;2022-07-18T00:46:26;97128.34;;;10.07;72.58
47274;BME280;33007;49.082;19.306;2022-07-18T00:48:52;97170.25;;;10.32;73.43
47274;BME280;33007;49.082;19.306;2022-07-18T00:51:18;97176.22;;;10.27;73.49
47274;BME280;33007;49.082;19.306;2022-07-18T00:53:44;97111.09;;;9.76;73.79
47274;BME280;33007;49.082;19.306;2022-07-18T00:56:11;97177.63;;;10.18;74.33
47274;BME280;33007;49.082;19.306;2022-07-18T00:58:38;97149.94;;;9.98;73.92
47274;BME280;33007;49.082;19.306;2022-07-18T01:01:03;97141.16;;;9.81;74.06
47274;BME280;33007;49.082;19.306;2022-07-18T01:03:48;97147.34;;;9.82;74.58
47274;BME280;33007;49.082;19.306;2022-07-18T01:06:13;97142.22;;;9.71;74.13
47274;BME280;33007;49.082;19.306;2022-07-18T01:08:41;97153.72;;;9.75;73.86
47274;BME280;33007;49.082;19.306;2022-07-18T01:11:08;97168.91;;;9.73;74.95
47274;BME280;33007;49.082;19.306;2022-07-18T01:13:34;97155.88;;;9.67;75.42
47274;BME280;33007;49.082;19.306;2022-07-18T01:16:00;97148.94;;;9.54;74.69
47274;BME280;33007;49.082;19.306;2022-07-18T01:18:25;97138.19;;;9.50;75.48
47274;BME280;33007;49.082;19.306;2022-07-18T01:20:51;97129.38;;;9.46;75.93
47274;BME280;33007;49.082;19.306;2022-07-18T01:23:17;97130.13;;;9.47;76.21
47274;BME280;33007;49.082;19.306;2022-07-18T01:25:43;97134.28;;;9.51;74.95
47274;BME280;33007;49.082;19.306;2022-07-18T01:28:09;97126.81;;;9.55;75.97
47274;BME280;33007;49.082;19.306;2022-07-18T01:30:35;97141.03;;;9.72;76.12
47274;BME280;33007;49.082;19.306;2022-07-18T01:33:02;97130.41;;;9.65;74.09
47274;BME280;33007;49.082;19.306;2022-07-18T01:35:29;97175.13;;;9.86;73.94
47274;BME280;33007;49.082;19.306;2022-07-18T01:37:58;97171.09;;;9.78;74.62
47274;BME280;33007;49.082;19.306;2022-07-18T01:40:24;97128.63;;;9.45;74.36
47274;BME280;33007;49.082;19.306;2022-07-18T01:42:50;97165.00;;;9.74;74.85
47274;BME280;33007;49.082;19.306;2022-07-18T01:45:16;97146.22;;;9.54;74.35
47274;BME280;33007;49.082;19.306;2022-07-18T01:47:42;97167.13;;;9.53;75.26
47274;BME280;33007;49.082;19.306;2022-07-18T01:50:10;97148.72;;;9.48;74.75
47274;BME280;33007;49.082;19.306;2022-07-18T01:52:36;97110.34;;;9.21;75.45
47274;BME280;33007;49.082;19.306;2022-07-18T01:55:03;97168.53;;;9.45;75.93
47274;BME280;33007;49.082;19.306;2022-07-18T01:57:29;97167.31;;;9.33;75.89
47274;BME280;33007;49.082;19.306;2022-07-18T01:59:54;97122.34;;;9.07;76.33
47274;BME280;33007;49.082;19.306;2022-07-18T02:02:20;97122.91;;;9.14;75.08
47274;BME280;33007;49.082;19.306;2022-07-18T02:04:46;97095.97;;;8.95;75.41
47274;BME280;33007;49.082;19.306;2022-07-18T02:07:35;97142.47;;;9.22;75.46
47274;BME280;33007;49.082;19.306;2022-07-18T02:10:12;97170.34;;;9.35;76.50
47274;BME280;33007;49.082;19.306;2022-07-18T02:12:39;97113.59;;;8.86;76.56
47274;BME280;33007;49.082;19.306;2022-07-18T02:15:06;97129.66;;;8.93;76.01
47274;BME280;33007;49.082;19.306;2022-07-18T02:17:32;97142.75;;;9.11;76.20
47274;BME280;33007;49.082;19.306;2022-07-18T02:19:58;97118.97;;;8.74;76.21
47274;BME280;33007;49.082;19.306;2022-07-18T02:22:24;97157.09;;;8.96;77.36
47274;BME280;33007;49.082;19.306;2022-07-18T02:24:51;97114.84;;;8.69;77.43
47274;BME280;33007;49.082;19.306;2022-07-18T02:27:16;97132.25;;;8.84;77.42
47274;BME280;33007;49.082;19.306;2022-07-18T02:29:43;97167.91;;;9.12;77.90
47274;BME280;33007;49.082;19.306;2022-07-18T02:32:08;97101.81;;;8.64;77.85
47274;BME280;33007;49.082;19.306;2022-07-18T02:34:34;97118.19;;;8.73;77.10
47274;BME280;33007;49.082;19.306;2022-07-18T02:37:00;97100.19;;;8.66;77.75
47274;BME280;33007;49.082;19.306;2022-07-18T02:39:25;97137.47;;;8.91;76.73
47274;BME280;33007;49.082;19.306;2022-07-18T02:41:51;97101.66;;;8.55;77.25
47274;BME280;33007;49.082;19.306;2022-07-18T02:44:17;97133.69;;;8.73;77.39
47274;BME280;33007;49.082;19.306;2022-07-18T02:46:43;97138.34;;;8.72;77.08
47274;BME280;33007;49.082;19.306;2022-07-18T02:49:08;97128.22;;;8.89;77.50
47274;BME280;33007;49.082;19.306;2022-07-18T02:51:34;97126.47;;;8.82;77.11
47274;BME280;33007;49.082;19.306;2022-07-18T02:54:00;97140.81;;;9.12;76.54
47274;BME280;33007;49.082;19.306;2022-07-18T02:56:25;97138.69;;;8.74;76.91
47274;BME280;33007;49.082;19.306;2022-07-18T02:58:51;97115.88;;;8.59;77.47
47274;BME280;33007;49.082;19.306;2022-07-18T03:01:17;97107.00;;;8.58;77.46
47274;BME280;33007;49.082;19.306;2022-07-18T03:03:42;97139.78;;;8.77;78.02
47274;BME280;33007;49.082;19.306;2022-07-18T03:06:08;97123.84;;;8.95;77.38
47274;BME280;33007;49.082;19.306;2022-07-18T03:08:33;97102.72;;;8.74;76.33
47274;BME280;33007;49.082;19.306;2022-07-18T03:10:59;97140.72;;;8.70;76.73
47274;BME280;33007;49.082;19.306;2022-07-18T03:13:25;97141.16;;;8.69;77.64
47274;BME280;33007;49.082;19.306;2022-07-18T03:15:50;97173.44;;;8.92;77.88
47274;BME280;33007;49.082;19.306;2022-07-18T03:18:16;97136.59;;;8.65;78.13
47274;BME280;33007;49.082;19.306;2022-07-18T03:20:42;97145.47;;;8.66;77.95
47274;BME280;33007;49.082;19.306;2022-07-18T03:23:09;97179.91;;;8.82;78.10
47274;BME280;33007;49.082;19.306;2022-07-18T03:25:35;97160.53;;;8.67;78.08
47274;BME280;33007;49.082;19.306;2022-07-18T03:28:01;97175.19;;;8.70;78.05
47274;BME280;33007;49.082;19.306;2022-07-18T03:30:27;97174.94;;;8.64;78.02
47274;BME280;33007;49.082;19.306;2022-07-18T03:32:53;97180.59;;;8.70;78.54
47274;BME280;33007;49.082;19.306;2022-07-18T03:35:18;97184.38;;;8.72;78.92
47274;BME280;33007;49.082;19.306;2022-07-18T03:37:44;97172.22;;;8.64;78.45
47274;BME280;33007;49.082;19.306;2022-07-18T03:40:10;97197.41;;;8.77;78.83
47274;BME280;33007;49.082;19.306;2022-07-18T03:42:37;97156.00;;;8.48;79.06
47274;BME280;33007;49.082;19.306;2022-07-18T03:45:04;97134.22;;;8.35;79.54
47274;BME280;33007;49.082;19.306;2022-07-18T03:47:30;97148.78;;;8.41;79.23
47274;BME280;33007;49.082;19.306;2022-07-18T03:49:55;97205.53;;;8.77;79.33
47274;BME280;33007;49.082;19.306;2022-07-18T03:52:21;97174.00;;;8.54;78.99
47274;BME280;33007;49.082;19.306;2022-07-18T03:54:46;97178.28;;;8.68;79.35
47274;BME280;33007;49.082;19.306;2022-07-18T03:57:12;97178.91;;;8.76;78.99
47274;BME280;33007;49.082;19.306;2022-07-18T03:59:37;97166.50;;;8.91;79.02
47274;BME280;33007;49.082;19.306;2022-07-18T04:02:03;97158.09;;;9.02;77.86
47274;BME280;33007;49.082;19.306;2022-07-18T04:04:28;97171.53;;;9.22;77.60
47274;BME280;33007;49.082;19.306;2022-07-18T04:06:54;97174.22;;;9.22;76.62
47274;BME280;33007;49.082;19.306;2022-07-18T04:09:25;97158.00;;;9.05;76.91
47274;BME280;33007;49.082;19.306;2022-07-18T04:11:50;97176.94;;;9.22;77.39
47274;BME280;33007;49.082;19.306;2022-07-18T04:14:16;97163.72;;;9.24;77.11
47274;BME280;33007;49.082;19.306;2022-07-18T04:16:41;97166.03;;;9.38;76.46
47274;BME280;33007;49.082;19.306;2022-07-18T04:19:09;97158.75;;;9.35;76.42
47274;BME280;33007;49.082;19.306;2022-07-18T04:21:35;97153.41;;;9.31;76.34
47274;BME280;33007;49.082;19.306;2022-07-18T04:24:01;97211.47;;;9.76;76.55
47274;BME280;33007;49.082;19.306;2022-07-18T04:26:26;97180.44;;;9.77;76.90
47274;BME280;33007;49.082;19.306;2022-07-18T04:28:52;97202.91;;;9.90;76.35
47274;BME280;33007;49.082;19.306;2022-07-18T04:31:18;97165.22;;;9.79;76.06
47274;BME280;33007;49.082;19.306;2022-07-18T04:33:44;97215.72;;;10.15;75.55
47274;BME280;33007;49.082;19.306;2022-07-18T04:36:09;97182.50;;;9.98;74.39
47274;BME280;33007;49.082;19.306;2022-07-18T04:38:35;97161.88;;;9.88;74.95
47274;BME280;33007;49.082;19.306;2022-07-18T04:41:06;97174.03;;;10.09;74.53
47274;BME280;33007;49.082;19.306;2022-07-18T04:43:31;97172.53;;;10.08;73.79
47274;BME280;33007;49.082;19.306;2022-07-18T04:45:57;97205.44;;;10.35;74.21
47274;BME280;33007;49.082;19.306;2022-07-18T04:48:23;97170.56;;;10.08;74.49
47274;BME280;33007;49.082;19.306;2022-07-18T04:50:48;97182.31;;;10.31;75.00
47274;BME280;33007;49.082;19.306;2022-07-18T04:53:14;97142.75;;;10.17;73.71
47274;BME280;33007;49.082;19.306;2022-07-18T04:55:40;97159.59;;;10.37;74.23
47274;BME280;33007;49.082;19.306;2022-07-18T04:58:05;97183.16;;;10.53;73.88
47274;BME280;33007;49.082;19.306;2022-07-18T05:00:31;97169.16;;;10.55;74.05
47274;BME280;33007;49.082;19.306;2022-07-18T05:02:57;97181.59;;;10.65;73.84
47274;BME280;33007;49.082;19.306;2022-07-18T05:05:25;97200.47;;;10.81;73.99
47274;BME280;33007;49.082;19.306;2022-07-18T05:07:52;97166.09;;;10.65;74.23
47274;BME280;33007;49.082;19.306;2022-07-18T05:10:21;97175.06;;;10.75;73.18
47274;BME280;33007;49.082;19.306;2022-07-18T05:12:48;97154.22;;;10.72;72.99
47274;BME280;33007;49.082;19.306;2022-07-18T05:15:16;97195.63;;;11.11;73.01
47274;BME280;33007;49.082;19.306;2022-07-18T05:17:43;97177.44;;;11.08;73.52
47274;BME280;33007;49.082;19.306;2022-07-18T05:20:11;97190.13;;;11.23;72.71
47274;BME280;33007;49.082;19.306;2022-07-18T05:22:37;97188.69;;;11.32;72.74
47274;BME280;33007;49.082;19.306;2022-07-18T05:25:03;97175.38;;;11.34;72.45
47274;BME280;33007;49.082;19.306;2022-07-18T05:27:30;97164.31;;;11.28;72.67
47274;BME280;33007;49.082;19.306;2022-07-18T05:29:55;97186.53;;;11.48;74.06
47274;BME280;33007;49.082;19.306;2022-07-18T05:32:21;97138.91;;;11.22;73.39
47274;BME280;33007;49.082;19.306;2022-07-18T05:34:47;97140.75;;;11.25;72.88
47274;BME280;33007;49.082;19.306;2022-07-18T05:37:12;97191.75;;;11.65;73.73
47274;BME280;33007;49.082;19.306;2022-07-18T05:39:38;97160.41;;;11.51;73.08
47274;BME280;33007;49.082;19.306;2022-07-18T05:42:04;97186.56;;;11.79;72.60
47274;BME280;33007;49.082;19.306;2022-07-18T05:44:30;97190.53;;;11.88;72.97
47274;BME280;33007;49.082;19.306;2022-07-18T05:46:56;97143.53;;;11.65;72.91
47274;BME280;33007;49.082;19.306;2022-07-18T05:49:22;97148.41;;;11.70;73.52
47274;BME280;33007;49.082;19.306;2022-07-18T05:51:47;97138.91;;;11.75;73.48
47274;BME280;33007;49.082;19.306;2022-07-18T05:54:13;97169.91;;;11.99;72.47
47274;BME280;33007;49.082;19.306;2022-07-18T05:56:50;97128.28;;;11.90;73.38
47274;BME280;33007;49.082;19.306;2022-07-18T05:59:17;97150.75;;;12.12;73.08
47274;BME280;33007;49.082;19.306;2022-07-18T06:01:44;97147.44;;;12.17;72.53
47274;BME280;33007;49.082;19.306;2022-07-18T06:04:09;97117.00;;;12.10;72.31
47274;BME280;33007;49.082;19.306;2022-07-18T06:06:35;97155.84;;;12.41;72.08
47274;BME280;33007;49.082;19.306;2022-07-18T06:09:02;97115.84;;;12.20;70.91
47274;BME280;33007;49.082;19.306;2022-07-18T06:11:27;97135.06;;;12.35;71.41
47274;BME280;33007;49.082;19.306;2022-07-18T06:13:53;97120.41;;;12.41;70.14
47274;BME280;33007;49.082;19.306;2022-07-18T06:16:19;97158.16;;;12.70;70.51
47274;BME280;33007;49.082;19.306;2022-07-18T06:18:44;97150.00;;;12.79;69.33
47274;BME280;33007;49.082;19.306;2022-07-18T06:21:10;97114.22;;;12.59;70.26
47274;BME280;33007;49.082;19.306;2022-07-18T06:23:36;97123.78;;;12.73;69.63
47274;BME280;33007;49.082;19.306;2022-07-18T06:26:02;97112.72;;;12.76;69.77
47274;BME280;33007;49.082;19.306;2022-07-18T06:28:28;97114.72;;;12.85;69.99
47274;BME280;33007;49.082;19.306;2022-07-18T06:30:54;97124.56;;;13.01;69.73
47274;BME280;33007;49.082;19.306;2022-07-18T06:33:20;97114.53;;;13.07;68.79
47274;BME280;33007;49.082;19.306;2022-07-18T06:35:46;97153.47;;;13.35;68.95
47274;BME280;33007;49.082;19.306;2022-07-18T06:38:13;97152.88;;;13.40;69.31
47274;BME280;33007;49.082;19.306;2022-07-18T06:40:39;97156.34;;;13.50;66.16
47274;BME280;33007;49.082;19.306;2022-07-18T06:43:05;97151.63;;;13.59;67.33
47274;BME280;33007;49.082;19.306;2022-07-18T06:45:32;97092.56;;;13.29;67.28
47274;BME280;33007;49.082;19.306;2022-07-18T06:47:58;97135.38;;;13.65;66.89
47274;BME280;33007;49.082;19.306;2022-07-18T06:50:23;97101.00;;;13.58;66.84
47274;BME280;33007;49.082;19.306;2022-07-18T06:52:49;97129.44;;;13.76;67.48
47274;BME280;33007;49.082;19.306;2022-07-18T06:55:15;97090.78;;;13.68;66.69
47274;BME280;33007;49.082;19.306;2022-07-18T06:57:41;97096.22;;;13.77;67.00
47274;BME280;33007;49.082;19.306;2022-07-18T07:00:09;97088.75;;;13.87;66.08
47274;BME280;33007;49.082;19.306;2022-07-18T07:02:46;97113.84;;;14.09;66.55
47274;BME280;33007;49.082;19.306;2022-07-18T07:05:12;97108.69;;;14.11;66.70
47274;BME280;33007;49.082;19.306;2022-07-18T07:07:38;97120.59;;;14.23;66.48
47274;BME280;33007;49.082;19.306;2022-07-18T07:10:05;97111.66;;;14.23;66.10
47274;BME280;33007;49.082;19.306;2022-07-18T07:12:38;97121.31;;;14.33;63.46
47274;BME280;33007;49.082;19.306;2022-07-18T07:15:04;97117.59;;;14.45;63.75
47274;BME280;33007;49.082;19.306;2022-07-18T07:17:29;97100.59;;;14.41;63.76
47274;BME280;33007;49.082;19.306;2022-07-18T07:19:55;97100.44;;;14.45;63.45
47274;BME280;33007;49.082;19.306;2022-07-18T07:22:20;97120.97;;;14.64;63.25
47274;BME280;33007;49.082;19.306;2022-07-18T07:24:46;97100.97;;;14.58;60.56
47274;BME280;33007;49.082;19.306;2022-07-18T07:27:12;97090.25;;;14.54;60.32
47274;BME280;33007;49.082;19.306;2022-07-18T07:29:37;97099.69;;;14.68;59.55
47274;BME280;33007;49.082;19.306;2022-07-18T07:32:03;97116.63;;;14.81;60.46
47274;BME280;33007;49.082;19.306;2022-07-18T07:34:28;97114.44;;;14.85;61.34
47274;BME280;33007;49.082;19.306;2022-07-18T07:36:55;97096.72;;;14.81;60.03
47274;BME280;33007;49.082;19.306;2022-07-18T07:39:21;97101.94;;;14.93;58.89
47274;BME280;33007;49.082;19.306;2022-07-18T07:41:46;97117.03;;;15.04;62.33
47274;BME280;33007;49.082;19.306;2022-07-18T07:44:12;97104.59;;;15.03;60.45
47274;BME280;33007;49.082;19.306;2022-07-18T07:46:38;97100.34;;;15.16;59.40
47274;BME280;33007;49.082;19.306;2022-07-18T07:49:03;97106.22;;;15.24;59.52
47274;BME280;33007;49.082;19.306;2022-07-18T07:51:29;97088.75;;;15.22;59.07
47274;BME280;33007;49.082;19.306;2022-07-18T07:53:54;97112.53;;;15.30;59.27
47274;BME280;33007;49.082;19.306;2022-07-18T07:56:20;97071.47;;;15.15;58.26
47274;BME280;33007;49.082;19.306;2022-07-18T07:58:45;97089.69;;;15.33;59.08
47274;BME280;33007;49.082;19.306;2022-07-18T08:01:11;97100.38;;;15.46;58.73
47274;BME280;33007;49.082;19.306;2022-07-18T08:03:38;97097.44;;;15.50;57.11
47274;BME280;33007;49.082;19.306;2022-07-18T08:06:04;97076.31;;;15.50;57.53
47274;BME280;33007;49.082;19.306;2022-07-18T08:08:30;97093.84;;;15.58;57.14
47274;BME280;33007;49.082;19.306;2022-07-18T08:10:55;97099.75;;;15.66;57.20
47274;BME280;33007;49.082;19.306;2022-07-18T08:13:21;97110.56;;;15.90;57.30
47274;BME280;33007;49.082;19.306;2022-07-18T08:15:47;97118.44;;;16.03;58.12
47274;BME280;33007;49.082;19.306;2022-07-18T08:18:12;97107.50;;;16.03;58.36
47274;BME280;33007;49.082;19.306;2022-07-18T08:20:38;97091.72;;;15.97;56.39
47274;BME280;33007;49.082;19.306;2022-07-18T08:23:06;97076.94;;;15.89;55.74
47274;BME280;33007;49.082;19.306;2022-07-18T08:25:36;97112.16;;;16.32;56.07
47274;BME280;33007;49.082;19.306;2022-07-18T08:28:03;97096.06;;;16.39;55.31
47274;BME280;33007;49.082;19.306;2022-07-18T08:30:30;97063.72;;;16.43;55.98
47274;BME280;33007;49.082;19.306;2022-07-18T08:32:56;97093.19;;;16.69;53.65
47274;BME280;33007;49.082;19.306;2022-07-18T08:35:21;97081.56;;;16.74;54.15
47274;BME280;33007;49.082;19.306;2022-07-18T08:37:47;97076.09;;;17.00;55.03
47274;BME280;33007;49.082;19.306;2022-07-18T08:40:13;97090.25;;;17.19;53.82
47274;BME280;33007;49.082;19.306;2022-07-18T08:42:40;97083.47;;;17.40;54.11
47274;BME280;33007;49.082;19.306;2022-07-18T08:45:06;97060.97;;;17.36;52.97
47274;BME280;33007;49.082;19.306;2022-07-18T08:47:32;97040.53;;;17.37;53.08
47274;BME280;33007;49.082;19.306;2022-07-18T08:49:59;97058.47;;;17.64;51.24
47274;BME280;33007;49.082;19.306;2022-07-18T08:52:26;97079.41;;;17.93;51.32
47274;BME280;33007;49.082;19.306;2022-07-18T08:54:52;97033.09;;;17.75;50.24
47274;BME280;33007;49.082;19.306;2022-07-18T08:57:21;97066.31;;;18.14;50.76
47274;BME280;33007;49.082;19.306;2022-07-18T08:59:48;97063.38;;;18.23;49.58
47274;BME280;33007;49.082;19.306;2022-07-18T09:02:13;97015.81;;;18.06;47.87
47274;BME280;33007;49.082;19.306;2022-07-18T09:04:43;97041.94;;;18.39;47.12
47274;BME280;33007;49.082;19.306;2022-07-18T09:07:11;97061.34;;;18.72;46.51
47274;BME280;33007;49.082;19.306;2022-07-18T09:09:55;97049.88;;;18.85;46.80
47274;BME280;33007;49.082;19.306;2022-07-18T09:12:23;97034.63;;;18.90;44.76
47274;BME280;33007;49.082;19.306;2022-07-18T09:14:48;97049.94;;;19.19;44.02
47274;BME280;33007;49.082;19.306;2022-07-18T09:17:28;97038.94;;;19.24;44.34
47274;BME280;33007;49.082;19.306;2022-07-18T09:20:11;97032.94;;;19.43;44.79
47274;BME280;33007;49.082;19.306;2022-07-18T09:22:41;97042.72;;;19.66;44.03
47274;BME280;33007;49.082;19.306;2022-07-18T09:25:11;97041.69;;;19.80;43.89
47274;BME280;33007;49.082;19.306;2022-07-18T09:27:43;97013.66;;;19.71;43.11
47274;BME280;33007;49.082;19.306;2022-07-18T09:30:24;97001.63;;;19.74;39.54
47274;BME280;33007;49.082;19.306;2022-07-18T09:35:44;97023.84;;;20.15;36.10
47274;BME280;33007;49.082;19.306;2022-07-18T09:38:12;97026.03;;;20.33;39.56
47274;BME280;33007;49.082;19.306;2022-07-18T09:40:43;97014.50;;;20.29;34.82
47274;BME280;33007;49.082;19.306;2022-07-18T09:43:11;96993.94;;;20.36;36.57
47274;BME280;33007;49.082;19.306;2022-07-18T09:45:42;96998.13;;;20.59;37.88
47274;BME280;33007;49.082;19.306;2022-07-18T09:48:14;96993.75;;;20.75;37.99
47274;BME280;33007;49.082;19.306;2022-07-18T09:50:53;96994.91;;;20.91;37.14
47274;BME280;33007;49.082;19.306;2022-07-18T09:53:25;96999.53;;;21.13;37.05
47274;BME280;33007;49.082;19.306;2022-07-18T09:56:02;97007.72;;;21.30;35.02
47274;BME280;33007;49.082;19.306;2022-07-18T09:58:30;96994.38;;;21.34;36.19
47274;BME280;33007;49.082;19.306;2022-07-18T10:00:59;97005.50;;;21.58;36.01
47274;BME280;33007;49.082;19.306;2022-07-18T10:03:25;96985.19;;;21.50;35.60
47274;BME280;33007;49.082;19.306;2022-07-18T10:05:53;96994.03;;;21.73;34.67
47274;BME280;33007;49.082;19.306;2022-07-18T10:08:24;97000.91;;;21.91;34.93
47274;BME280;33007;49.082;19.306;2022-07-18T10:10:51;96991.47;;;22.05;34.23
47274;BME280;33007;49.082;19.306;2022-07-18T10:13:18;96967.88;;;21.98;34.50
47274;BME280;33007;49.082;19.306;2022-07-18T10:15:46;96978.34;;;22.11;33.72
47274;BME280;33007;49.082;19.306;2022-07-18T10:18:13;96970.66;;;22.23;34.04
47274;BME280;33007;49.082;19.306;2022-07-18T10:20:45;96993.59;;;22.37;31.67
47274;BME280;33007;49.082;19.306;2022-07-18T10:25:43;96975.66;;;22.62;33.48
47274;BME280;33007;49.082;19.306;2022-07-18T10:28:12;96975.38;;;22.66;32.61
47274;BME280;33007;49.082;19.306;2022-07-18T10:30:41;96966.31;;;22.84;36.48
47274;BME280;33007;49.082;19.306;2022-07-18T10:33:45;96979.53;;;23.10;32.24
47274;BME280;33007;49.082;19.306;2022-07-18T10:36:20;96968.78;;;23.07;31.80
47274;BME280;33007;49.082;19.306;2022-07-18T11:00:23;96972.47;;;24.26;33.98
47274;BME280;33007;49.082;19.306;2022-07-18T11:03:09;96946.75;;;24.13;32.25
47274;BME280;33007;49.082;19.306;2022-07-18T11:05:45;96956.22;;;24.44;32.46
47274;BME280;33007;49.082;19.306;2022-07-18T11:15:56;96928.63;;;24.72;28.93
47274;BME280;33007;49.082;19.306;2022-07-18T11:18:23;96912.72;;;24.73;28.89
47274;BME280;33007;49.082;19.306;2022-07-18T11:20:49;96942.19;;;24.97;28.98
47274;BME280;33007;49.082;19.306;2022-07-18T11:23:24;96946.75;;;25.07;29.41
47274;BME280;33007;49.082;19.306;2022-07-18T11:25:55;96930.44;;;25.25;27.90
47274;BME280;33007;49.082;19.306;2022-07-18T11:28:22;96917.00;;;25.16;27.46
47274;BME280;33007;49.082;19.306;2022-07-18T11:33:31;96913.28;;;25.63;28.09
47274;BME280;33007;49.082;19.306;2022-07-18T11:38:34;96897.09;;;25.82;28.00
47274;BME280;33007;49.082;19.306;2022-07-18T11:41:02;96903.38;;;26.11;27.94
47274;BME280;33007;49.082;19.306;2022-07-18T11:43:28;96914.59;;;26.26;28.51
47274;BME280;33007;49.082;19.306;2022-07-18T11:46:07;96912.63;;;26.42;29.53
47274;BME280;33007;49.082;19.306;2022-07-18T11:48:33;96914.69;;;26.57;31.27
47274;BME280;33007;49.082;19.306;2022-07-18T11:50:59;96891.88;;;26.58;29.78
47274;BME280;33007;49.082;19.306;2022-07-18T11:53:26;96884.09;;;26.72;29.01
47274;BME280;33007;49.082;19.306;2022-07-18T11:55:53;96899.72;;;26.90;28.28
47274;BME280;33007;49.082;19.306;2022-07-18T11:58:19;96900.09;;;26.95;26.29
47274;BME280;33007;49.082;19.306;2022-07-18T12:00:45;96891.38;;;26.98;26.93
47274;BME280;33007;49.082;19.306;2022-07-18T12:03:16;96909.03;;;27.16;27.87
47274;BME280;33007;49.082;19.306;2022-07-18T12:05:45;96902.56;;;27.13;27.63
47274;BME280;33007;49.082;19.306;2022-07-18T12:11:14;96891.59;;;27.31;27.01
47274;BME280;33007;49.082;19.306;2022-07-18T12:13:51;96885.63;;;27.50;25.80
47274;BME280;33007;49.082;19.306;2022-07-18T12:16:42;96886.72;;;27.62;26.44
47274;BME280;33007;49.082;19.306;2022-07-18T12:19:16;96888.41;;;27.73;26.00
47274;BME280;33007;49.082;19.306;2022-07-18T12:21:54;96883.56;;;27.81;25.71
47274;BME280;33007;49.082;19.306;2022-07-18T12:24:29;96866.25;;;27.82;31.12
47274;BME280;33007;49.082;19.306;2022-07-18T12:32:54;96873.75;;;28.12;27.93
47274;BME280;33007;49.082;19.306;2022-07-18T12:35:22;96884.72;;;28.18;27.61
47274;BME280;33007;49.082;19.306;2022-07-18T12:38:02;96868.41;;;27.99;24.88
47274;BME280;33007;49.082;19.306;2022-07-18T12:40:54;96859.06;;;28.12;27.29
47274;BME280;33007;49.082;19.306;2022-07-18T12:43:32;96868.50;;;28.24;26.89
47274;BME280;33007;49.082;19.306;2022-07-18T12:46:00;96837.75;;;28.32;26.76
47274;BME280;33007;49.082;19.306;2022-07-18T12:48:27;96859.94;;;28.62;26.46
47274;BME280;33007;49.082;19.306;2022-07-18T12:53:23;96826.34;;;28.45;26.99
47274;BME280;33007;49.082;19.306;2022-07-18T12:55:48;96826.97;;;28.36;22.30
47274;BME280;33007;49.082;19.306;2022-07-18T12:58:14;96824.59;;;28.57;25.59
47274;BME280;33007;49.082;19.306;2022-07-18T13:00:40;96814.75;;;28.56;25.85
47274;BME280;33007;49.082;19.306;2022-07-18T13:03:05;96826.44;;;28.87;25.26
47274;BME280;33007;49.082;19.306;2022-07-18T13:05:31;96837.53;;;28.70;25.38
47274;BME280;33007;49.082;19.306;2022-07-18T13:07:57;96825.91;;;28.81;23.56
47274;BME280;33007;49.082;19.306;2022-07-18T13:10:23;96820.22;;;28.96;25.00
47274;BME280;33007;49.082;19.306;2022-07-18T13:12:49;96836.03;;;29.19;24.79
47274;BME280;33007;49.082;19.306;2022-07-18T13:15:14;96839.72;;;29.46;24.33
47274;BME280;33007;49.082;19.306;2022-07-18T13:17:40;96813.53;;;29.17;23.91
47274;BME280;33007;49.082;19.306;2022-07-18T13:20:06;96828.72;;;29.66;24.88
47274;BME280;33007;49.082;19.306;2022-07-18T13:22:32;96836.03;;;29.79;25.55
47274;BME280;33007;49.082;19.306;2022-07-18T13:25:07;96823.69;;;29.82;25.52
47274;BME280;33007;49.082;19.306;2022-07-18T13:27:33;96844.41;;;29.96;22.64
47274;BME280;33007;49.082;19.306;2022-07-18T13:30:03;96823.56;;;30.24;25.61
47274;BME280;33007;49.082;19.306;2022-07-18T13:32:29;96823.41;;;30.49;24.95
47274;BME280;33007;49.082;19.306;2022-07-18T13:34:55;96825.66;;;30.60;23.18
47274;BME280;33007;49.082;19.306;2022-07-18T13:37:21;96818.44;;;30.30;22.10
47274;BME280;33007;49.082;19.306;2022-07-18T13:39:47;96813.28;;;31.00;24.97
47274;BME280;33007;49.082;19.306;2022-07-18T13:42:13;96837.31;;;30.93;23.67
47274;BME280;33007;49.082;19.306;2022-07-18T13:44:38;96818.34;;;31.21;24.42